sensor_id;sensor_type;location;lat;lon;timestamp;temperature;humidity
14236;DHT22;7202;50.718;7.072;2022-08-07T00:01:16;14.00;99.90
14236;DHT22;7202;50.718;7.072;2022-08-07T00:04:06;13.90;99.90
14236;DHT22;7202;50.718;7.072;2022-08-07T00:06:39;13.90;99.90
14236;DHT22;7202;50.718;7.072;2022-08-07T00:09:19;13.70;99.90
14236;DHT22;7202;50.718;7.072;2022-08-07T00:12:00;13.70;99.90
14236;DHT22;7202;50.718;7.072;2022-08-07T00:14:30;13.80;99.90
14236;DHT22;7202;50.718;7.072;2022-08-07T00:16:59;13.80;99.90
14236;DHT22;7202;50.718;7.072;2022-08-07T00:19:30;13.80;99.90
14236;DHT22;7202;50.718;7.072;2022-08-07T00:22:21;13.80;99.90
14236;DHT22;7202;50.718;7.072;2022-08-07T00:25:03;13.70;99.90
14236;DHT22;7202;50.718;7.072;2022-08-07T00:27:33;13.70;99.90
14236;DHT22;7202;50.718;7.072;2022-08-07T00:30:21;13.70;99.90
14236;DHT22;7202;50.718;7.072;2022-08-07T00:32:56;13.70;99.90
14236;DHT22;7202;50.718;7.072;2022-08-07T00:35:26;13.70;99.90
14236;DHT22;7202;50.718;7.072;2022-08-07T00:37:58;13.70;99.90
14236;DHT22;7202;50.718;7.072;2022-08-07T00:40:28;13.70;99.90
14236;DHT22;7202;50.718;7.072;2022-08-07T00:43:08;13.70;99.90
14236;DHT22;7202;50.718;7.072;2022-08-07T00:45:57;13.70;99.90
14236;DHT22;7202;50.718;7.072;2022-08-07T00:48:26;13.50;99.90
14236;DHT22;7202;50.718;7.072;2022-08-07T00:51:00;13.50;99.90
14236;DHT22;7202;50.718;7.072;2022-08-07T00:53:30;13.50;99.90
14236;DHT22;7202;50.718;7.072;2022-08-07T00:56:17;13.50;99.90
14236;DHT22;7202;50.718;7.072;2022-08-07T00:58:45;13.50;99.90
14236;DHT22;7202;50.718;7.072;2022-08-07T01:01:18;13.50;99.90
14236;DHT22;7202;50.718;7.072;2022-08-07T01:03:48;13.50;99.90
14236;DHT22;7202;50.718;7.072;2022-08-07T01:06:26;13.50;99.90
14236;DHT22;7202;50.718;7.072;2022-08-07T01:08:58;13.60;99.90
14236;DHT22;7202;50.718;7.072;2022-08-07T01:11:32;13.50;99.90
14236;DHT22;7202;50.718;7.072;2022-08-07T01:14:22;13.40;99.90
14236;DHT22;7202;50.718;7.072;2022-08-07T01:16:56;13.40;99.90
14236;DHT22;7202;50.718;7.072;2022-08-07T01:19:28;13.40;99.90
14236;DHT22;7202;50.718;7.072;2022-08-07T01:22:02;13.40;99.90
14236;DHT22;7202;50.718;7.072;2022-08-07T01:24:40;13.30;99.90
14236;DHT22;7202;50.718;7.072;2022-08-07T01:27:14;13.30;99.90
14236;DHT22;7202;50.718;7.072;2022-08-07T01:29:47;13.20;99.90
14236;DHT22;7202;50.718;7.072;2022-08-07T01:32:18;13.10;99.90
14236;DHT22;7202;50.718;7.072;2022-08-07T01:34:51;13.00;99.90
14236;DHT22;7202;50.718;7.072;2022-08-07T01:37:23;13.00;99.90
14236;DHT22;7202;50.718;7.072;2022-08-07T01:39:54;12.90;99.90
14236;DHT22;7202;50.718;7.072;2022-08-07T01:42:32;12.90;99.90
14236;DHT22;7202;50.718;7.072;2022-08-07T01:45:22;12.90;99.90
14236;DHT22;7202;50.718;7.072;2022-08-07T01:48:05;12.90;99.90
14236;DHT22;7202;50.718;7.072;2022-08-07T01:50:57;12.90;99.90
14236;DHT22;7202;50.718;7.072;2022-08-07T01:53:50;12.80;99.90
14236;DHT22;7202;50.718;7.072;2022-08-07T01:56:42;12.80;99.90
14236;DHT22;7202;50.718;7.072;2022-08-07T01:59:23;12.90;99.90
14236;DHT22;7202;50.718;7.072;2022-08-07T02:02:02;12.80;99.90
14236;DHT22;7202;50.718;7.072;2022-08-07T02:04:39;12.80;99.90
14236;DHT22;7202;50.718;7.072;2022-08-07T02:07:31;12.80;99.90
14236;DHT22;7202;50.718;7.072;2022-08-07T02:10:23;12.80;99.90
14236;DHT22;7202;50.718;7.072;2022-08-07T02:12:56;12.80;99.90
14236;DHT22;7202;50.718;7.072;2022-08-07T02:15:35;12.70;99.90
14236;DHT22;7202;50.718;7.072;2022-08-07T02:18:05;12.60;99.90
14236;DHT22;7202;50.718;7.072;2022-08-07T02:20:39;12.60;99.90
14236;DHT22;7202;50.718;7.072;2022-08-07T02:23:16;12.60;99.90
14236;DHT22;7202;50.718;7.072;2022-08-07T02:25:54;12.60;99.90
14236;DHT22;7202;50.718;7.072;2022-08-07T02:28:50;12.60;99.90
14236;DHT22;7202;50.718;7.072;2022-08-07T02:31:22;12.50;99.90
14236;DHT22;7202;50.718;7.072;2022-08-07T02:33:58;12.50;99.90
14236;DHT22;7202;50.718;7.072;2022-08-07T02:36:36;12.50;99.90
14236;DHT22;7202;50.718;7.072;2022-08-07T02:39:13;12.50;99.90
14236;DHT22;7202;50.718;7.072;2022-08-07T02:42:05;12.40;99.90
14236;DHT22;7202;50.718;7.072;2022-08-07T02:44:45;12.40;99.90
14236;DHT22;7202;50.718;7.072;2022-08-07T02:47:21;12.30;99.90
14236;DHT22;7202;50.718;7.072;2022-08-07T02:50:02;12.30;99.90
14236;DHT22;7202;50.718;7.072;2022-08-07T02:52:38;12.20;99.90
14236;DHT22;7202;50.718;7.072;2022-08-07T02:55:17;12.20;99.90
14236;DHT22;7202;50.718;7.072;2022-08-07T02:58:13;12.10;99.90
14236;DHT22;7202;50.718;7.072;2022-08-07T03:00:51;12.10;99.90
14236;DHT22;7202;50.718;7.072;2022-08-07T03:03:21;12.10;99.90
14236;DHT22;7202;50.718;7.072;2022-08-07T03:05:56;12.10;99.90
14236;DHT22;7202;50.718;7.072;2022-08-07T03:08:27;12.00;99.90
14236;DHT22;7202;50.718;7.072;2022-08-07T03:10:58;12.00;99.90
14236;DHT22;7202;50.718;7.072;2022-08-07T03:13:35;11.90;99.90
14236;DHT22;7202;50.718;7.072;2022-08-07T03:16:18;11.90;99.90
14236;DHT22;7202;50.718;7.072;2022-08-07T03:18:56;11.80;99.90
14236;DHT22;7202;50.718;7.072;2022-08-07T03:21:25;11.80;99.90
14236;DHT22;7202;50.718;7.072;2022-08-07T03:24:00;11.80;99.90
14236;DHT22;7202;50.718;7.072;2022-08-07T03:26:51;11.70;99.90
14236;DHT22;7202;50.718;7.072;2022-08-07T03:29:32;11.80;99.90
14236;DHT22;7202;50.718;7.072;2022-08-07T03:32:07;11.60;99.90
14236;DHT22;7202;50.718;7.072;2022-08-07T03:34:42;11.60;99.90
14236;DHT22;7202;50.718;7.072;2022-08-07T03:37:33;11.50;99.90
14236;DHT22;7202;50.718;7.072;2022-08-07T03:40:22;11.50;99.90
14236;DHT22;7202;50.718;7.072;2022-08-07T03:43:03;11.60;99.90
14236;DHT22;7202;50.718;7.072;2022-08-07T03:45:47;11.60;99.90
14236;DHT22;7202;50.718;7.072;2022-08-07T03:48:22;11.50;99.90
14236;DHT22;7202;50.718;7.072;2022-08-07T03:50:53;11.50;99.90
14236;DHT22;7202;50.718;7.072;2022-08-07T03:53:34;11.50;99.90
14236;DHT22;7202;50.718;7.072;2022-08-07T03:56:25;11.40;99.90
14236;DHT22;7202;50.718;7.072;2022-08-07T03:59:04;11.40;99.90
14236;DHT22;7202;50.718;7.072;2022-08-07T04:01:44;11.40;99.90
14236;DHT22;7202;50.718;7.072;2022-08-07T04:04:19;11.30;99.90
14236;DHT22;7202;50.718;7.072;2022-08-07T04:06:53;11.30;99.90
14236;DHT22;7202;50.718;7.072;2022-08-07T04:09:28;11.20;99.90
14236;DHT22;7202;50.718;7.072;2022-08-07T04:12:13;11.30;99.90
14236;DHT22;7202;50.718;7.072;2022-08-07T04:14:57;11.20;99.90
14236;DHT22;7202;50.718;7.072;2022-08-07T04:17:32;11.20;99.90
14236;DHT22;7202;50.718;7.072;2022-08-07T04:20:22;11.20;99.90
14236;DHT22;7202;50.718;7.072;2022-08-07T04:22:53;11.20;99.90
14236;DHT22;7202;50.718;7.072;2022-08-07T04:25:32;11.20;99.90
14236;DHT22;7202;50.718;7.072;2022-08-07T04:28:08;11.30;99.90
14236;DHT22;7202;50.718;7.072;2022-08-07T04:30:41;11.20;99.90
14236;DHT22;7202;50.718;7.072;2022-08-07T04:33:31;11.20;99.90
14236;DHT22;7202;50.718;7.072;2022-08-07T04:36:03;11.20;99.90
14236;DHT22;7202;50.718;7.072;2022-08-07T04:38:37;11.20;99.90
14236;DHT22;7202;50.718;7.072;2022-08-07T04:41:08;11.20;99.90
14236;DHT22;7202;50.718;7.072;2022-08-07T04:43:48;11.20;99.90
14236;DHT22;7202;50.718;7.072;2022-08-07T04:46:43;11.30;99.90
14236;DHT22;7202;50.718;7.072;2022-08-07T04:49:40;11.30;99.90
14236;DHT22;7202;50.718;7.072;2022-08-07T04:52:36;11.30;99.90
14236;DHT22;7202;50.718;7.072;2022-08-07T04:55:22;11.30;99.90
14236;DHT22;7202;50.718;7.072;2022-08-07T04:58:21;11.30;99.90
14236;DHT22;7202;50.718;7.072;2022-08-07T05:01:15;11.30;99.90
14236;DHT22;7202;50.718;7.072;2022-08-07T05:03:51;11.40;99.90
14236;DHT22;7202;50.718;7.072;2022-08-07T05:06:45;11.40;99.90
14236;DHT22;7202;50.718;7.072;2022-08-07T05:09:25;11.40;99.90
14236;DHT22;7202;50.718;7.072;2022-08-07T05:12:21;11.50;99.90
14236;DHT22;7202;50.718;7.072;2022-08-07T05:15:02;11.50;99.90
14236;DHT22;7202;50.718;7.072;2022-08-07T05:17:55;11.50;99.90
14236;DHT22;7202;50.718;7.072;2022-08-07T05:20:33;11.60;99.90
14236;DHT22;7202;50.718;7.072;2022-08-07T05:23:09;11.60;99.90
14236;DHT22;7202;50.718;7.072;2022-08-07T05:25:45;11.70;99.90
14236;DHT22;7202;50.718;7.072;2022-08-07T05:28:36;11.80;99.90
14236;DHT22;7202;50.718;7.072;2022-08-07T05:31:11;11.80;99.90
14236;DHT22;7202;50.718;7.072;2022-08-07T05:33:45;11.80;99.90
14236;DHT22;7202;50.718;7.072;2022-08-07T05:36:33;11.90;99.90
14236;DHT22;7202;50.718;7.072;2022-08-07T05:39:11;11.90;99.90
14236;DHT22;7202;50.718;7.072;2022-08-07T05:42:04;12.00;99.90
14236;DHT22;7202;50.718;7.072;2022-08-07T05:44:41;12.20;99.90
14236;DHT22;7202;50.718;7.072;2022-08-07T05:47:21;12.30;99.90
14236;DHT22;7202;50.718;7.072;2022-08-07T05:50:11;12.40;99.90
14236;DHT22;7202;50.718;7.072;2022-08-07T05:52:41;12.60;99.90
14236;DHT22;7202;50.718;7.072;2022-08-07T05:55:12;12.70;99.90
14236;DHT22;7202;50.718;7.072;2022-08-07T05:57:44;12.90;99.90
14236;DHT22;7202;50.718;7.072;2022-08-07T06:00:17;13.10;99.90
14236;DHT22;7202;50.718;7.072;2022-08-07T06:02:55;13.30;99.90
14236;DHT22;7202;50.718;7.072;2022-08-07T06:05:27;13.50;99.90
14236;DHT22;7202;50.718;7.072;2022-08-07T06:08:04;13.70;99.90
14236;DHT22;7202;50.718;7.072;2022-08-07T06:10:55;13.90;99.90
14236;DHT22;7202;50.718;7.072;2022-08-07T06:13:25;14.20;99.90
14236;DHT22;7202;50.718;7.072;2022-08-07T06:16:15;14.40;99.90
14236;DHT22;7202;50.718;7.072;2022-08-07T06:18:49;14.60;99.90
14236;DHT22;7202;50.718;7.072;2022-08-07T06:21:24;14.80;99.90
14236;DHT22;7202;50.718;7.072;2022-08-07T06:24:14;14.90;99.90
14236;DHT22;7202;50.718;7.072;2022-08-07T06:27:04;15.10;99.90
14236;DHT22;7202;50.718;7.072;2022-08-07T06:29:34;15.20;99.90
14236;DHT22;7202;50.718;7.072;2022-08-07T06:32:07;15.40;99.90
14236;DHT22;7202;50.718;7.072;2022-08-07T06:34:40;15.50;99.90
14236;DHT22;7202;50.718;7.072;2022-08-07T06:37:12;15.60;99.90
14236;DHT22;7202;50.718;7.072;2022-08-07T06:39:47;15.80;99.90
14236;DHT22;7202;50.718;7.072;2022-08-07T06:42:39;15.90;99.90
14236;DHT22;7202;50.718;7.072;2022-08-07T06:45:24;16.00;99.90
14236;DHT22;7202;50.718;7.072;2022-08-07T06:48:00;16.10;99.90
14236;DHT22;7202;50.718;7.072;2022-08-07T06:50:38;16.20;99.90
14236;DHT22;7202;50.718;7.072;2022-08-07T06:53:17;16.30;99.90
14236;DHT22;7202;50.718;7.072;2022-08-07T06:56:11;16.30;99.90
14236;DHT22;7202;50.718;7.072;2022-08-07T06:58:45;16.40;99.90
14236;DHT22;7202;50.718;7.072;2022-08-07T07:01:40;16.50;99.90
14236;DHT22;7202;50.718;7.072;2022-08-07T07:04:18;16.50;99.90
14236;DHT22;7202;50.718;7.072;2022-08-07T07:07:00;16.60;99.90
14236;DHT22;7202;50.718;7.072;2022-08-07T07:09:49;16.60;99.90
14236;DHT22;7202;50.718;7.072;2022-08-07T07:12:28;16.70;99.90
14236;DHT22;7202;50.718;7.072;2022-08-07T07:15:05;16.70;99.90
14236;DHT22;7202;50.718;7.072;2022-08-07T07:17:55;16.80;99.90
14236;DHT22;7202;50.718;7.072;2022-08-07T07:20:30;16.80;99.90
14236;DHT22;7202;50.718;7.072;2022-08-07T07:23:03;16.90;99.90
14236;DHT22;7202;50.718;7.072;2022-08-07T07:25:56;17.00;99.90
14236;DHT22;7202;50.718;7.072;2022-08-07T07:28:50;17.00;99.90
14236;DHT22;7202;50.718;7.072;2022-08-07T07:31:45;17.10;99.90
14236;DHT22;7202;50.718;7.072;2022-08-07T07:34:19;17.10;99.90
14236;DHT22;7202;50.718;7.072;2022-08-07T07:36:59;17.20;99.90
14236;DHT22;7202;50.718;7.072;2022-08-07T07:39:50;17.20;99.90
14236;DHT22;7202;50.718;7.072;2022-08-07T07:42:23;17.20;99.90
14236;DHT22;7202;50.718;7.072;2022-08-07T07:45:00;17.30;99.90
14236;DHT22;7202;50.718;7.072;2022-08-07T07:47:33;17.30;99.90
14236;DHT22;7202;50.718;7.072;2022-08-07T07:50:21;17.40;99.90
14236;DHT22;7202;50.718;7.072;2022-08-07T07:53:05;17.40;99.90
14236;DHT22;7202;50.718;7.072;2022-08-07T07:55:51;17.50;99.90
14236;DHT22;7202;50.718;7.072;2022-08-07T07:58:26;17.50;99.90
14236;DHT22;7202;50.718;7.072;2022-08-07T08:00:56;17.60;99.90
14236;DHT22;7202;50.718;7.072;2022-08-07T08:03:29;17.60;99.90
14236;DHT22;7202;50.718;7.072;2022-08-07T08:06:18;17.70;99.90
14236;DHT22;7202;50.718;7.072;2022-08-07T08:08:48;17.70;99.90
14236;DHT22;7202;50.718;7.072;2022-08-07T08:11:19;17.80;99.90
14236;DHT22;7202;50.718;7.072;2022-08-07T08:14:08;17.90;99.90
14236;DHT22;7202;50.718;7.072;2022-08-07T08:16:41;17.90;99.90
14236;DHT22;7202;50.718;7.072;2022-08-07T08:19:23;17.90;99.90
14236;DHT22;7202;50.718;7.072;2022-08-07T08:22:13;18.00;99.90
14236;DHT22;7202;50.718;7.072;2022-08-07T08:25:00;18.10;99.90
14236;DHT22;7202;50.718;7.072;2022-08-07T08:28:11;18.10;99.90
14236;DHT22;7202;50.718;7.072;2022-08-07T08:30:53;18.20;99.90
14236;DHT22;7202;50.718;7.072;2022-08-07T08:33:28;18.30;99.90
14236;DHT22;7202;50.718;7.072;2022-08-07T08:36:01;18.40;99.90
14236;DHT22;7202;50.718;7.072;2022-08-07T08:38:33;18.50;99.90
14236;DHT22;7202;50.718;7.072;2022-08-07T08:41:16;18.60;99.90
14236;DHT22;7202;50.718;7.072;2022-08-07T08:43:56;18.60;99.90
14236;DHT22;7202;50.718;7.072;2022-08-07T08:46:32;18.70;99.90
14236;DHT22;7202;50.718;7.072;2022-08-07T08:49:14;18.70;99.90
14236;DHT22;7202;50.718;7.072;2022-08-07T08:51:51;18.80;99.90
14236;DHT22;7202;50.718;7.072;2022-08-07T08:54:46;18.90;99.90
14236;DHT22;7202;50.718;7.072;2022-08-07T08:57:26;19.00;99.90
14236;DHT22;7202;50.718;7.072;2022-08-07T09:00:03;19.20;99.90
14236;DHT22;7202;50.718;7.072;2022-08-07T09:02:39;19.30;99.90
14236;DHT22;7202;50.718;7.072;2022-08-07T09:05:21;19.30;99.90
14236;DHT22;7202;50.718;7.072;2022-08-07T09:08:16;19.40;99.90
14236;DHT22;7202;50.718;7.072;2022-08-07T09:11:09;19.50;99.90
14236;DHT22;7202;50.718;7.072;2022-08-07T09:14:02;19.60;99.90
14236;DHT22;7202;50.718;7.072;2022-08-07T09:16:43;19.60;99.90
14236;DHT22;7202;50.718;7.072;2022-08-07T09:19:28;19.70;99.90
14236;DHT22;7202;50.718;7.072;2022-08-07T09:22:28;19.80;99.90
14236;DHT22;7202;50.718;7.072;2022-08-07T09:25:24;19.80;99.90
14236;DHT22;7202;50.718;7.072;2022-08-07T09:28:00;20.00;99.90
14236;DHT22;7202;50.718;7.072;2022-08-07T09:30:48;20.10;99.90
14236;DHT22;7202;50.718;7.072;2022-08-07T09:33:34;20.20;99.90
14236;DHT22;7202;50.718;7.072;2022-08-07T09:36:30;20.30;99.90
14236;DHT22;7202;50.718;7.072;2022-08-07T09:39:17;20.30;99.90
14236;DHT22;7202;50.718;7.072;2022-08-07T09:42:22;20.40;99.90
14236;DHT22;7202;50.718;7.072;2022-08-07T09:45:08;20.50;99.90
14236;DHT22;7202;50.718;7.072;2022-08-07T09:48:21;20.60;99.90
14236;DHT22;7202;50.718;7.072;2022-08-07T09:51:07;20.70;99.90
14236;DHT22;7202;50.718;7.072;2022-08-07T09:53:59;20.80;99.90
14236;DHT22;7202;50.718;7.072;2022-08-07T09:56:55;20.90;99.90
14236;DHT22;7202;50.718;7.072;2022-08-07T09:59:40;20.90;99.90
14236;DHT22;7202;50.718;7.072;2022-08-07T10:06:33;21.20;99.90
14236;DHT22;7202;50.718;7.072;2022-08-07T10:09:15;21.30;99.90
14236;DHT22;7202;50.718;7.072;2022-08-07T10:12:11;21.30;99.90
14236;DHT22;7202;50.718;7.072;2022-08-07T10:15:09;21.40;99.90
14236;DHT22;7202;50.718;7.072;2022-08-07T10:17:58;21.60;99.90
14236;DHT22;7202;50.718;7.072;2022-08-07T10:20:43;21.60;99.90
14236;DHT22;7202;50.718;7.072;2022-08-07T10:23:41;21.70;99.90
14236;DHT22;7202;50.718;7.072;2022-08-07T10:26:40;21.80;99.90
14236;DHT22;7202;50.718;7.072;2022-08-07T10:29:32;21.90;99.90
14236;DHT22;7202;50.718;7.072;2022-08-07T10:32:30;22.00;99.90
14236;DHT22;7202;50.718;7.072;2022-08-07T10:35:25;22.00;99.90
14236;DHT22;7202;50.718;7.072;2022-08-07T10:38:31;22.10;99.90
14236;DHT22;7202;50.718;7.072;2022-08-07T10:41:22;22.20;99.90
14236;DHT22;7202;50.718;7.072;2022-08-07T10:44:18;22.20;99.90
14236;DHT22;7202;50.718;7.072;2022-08-07T10:47:17;22.30;99.80
14236;DHT22;7202;50.718;7.072;2022-08-07T10:50:13;22.40;99.00
14236;DHT22;7202;50.718;7.072;2022-08-07T10:52:58;22.50;98.20
14236;DHT22;7202;50.718;7.072;2022-08-07T10:55:41;22.60;97.80
14236;DHT22;7202;50.718;7.072;2022-08-07T10:58:25;22.70;97.10
14236;DHT22;7202;50.718;7.072;2022-08-07T11:01:16;22.80;97.50
14236;DHT22;7202;50.718;7.072;2022-08-07T11:03:55;22.90;96.30
14236;DHT22;7202;50.718;7.072;2022-08-07T11:06:54;23.00;97.30
14236;DHT22;7202;50.718;7.072;2022-08-07T11:09:33;23.00;96.70
14236;DHT22;7202;50.718;7.072;2022-08-07T11:12:27;23.10;96.90
14236;DHT22;7202;50.718;7.072;2022-08-07T11:15:03;23.10;96.40
14236;DHT22;7202;50.718;7.072;2022-08-07T11:17:45;23.20;97.20
14236;DHT22;7202;50.718;7.072;2022-08-07T11:20:23;23.30;95.20
14236;DHT22;7202;50.718;7.072;2022-08-07T11:23:00;23.40;95.80
14236;DHT22;7202;50.718;7.072;2022-08-07T11:25:35;23.40;95.60
14236;DHT22;7202;50.718;7.072;2022-08-07T11:28:22;23.50;95.70
14236;DHT22;7202;50.718;7.072;2022-08-07T11:31:01;23.60;95.20
14236;DHT22;7202;50.718;7.072;2022-08-07T11:33:45;23.70;94.70
14236;DHT22;7202;50.718;7.072;2022-08-07T11:36:39;23.80;93.90
14236;DHT22;7202;50.718;7.072;2022-08-07T11:39:28;23.80;93.30
14236;DHT22;7202;50.718;7.072;2022-08-07T11:42:22;23.80;93.90
14236;DHT22;7202;50.718;7.072;2022-08-07T11:45:03;23.90;92.50
14236;DHT22;7202;50.718;7.072;2022-08-07T11:47:49;23.90;93.30
14236;DHT22;7202;50.718;7.072;2022-08-07T11:50:40;23.90;93.00
14236;DHT22;7202;50.718;7.072;2022-08-07T11:53:33;24.00;93.70
14236;DHT22;7202;50.718;7.072;2022-08-07T11:56:46;24.10;93.90
14236;DHT22;7202;50.718;7.072;2022-08-07T11:59:36;24.20;94.00
14236;DHT22;7202;50.718;7.072;2022-08-07T12:03:10;24.30;92.20
14236;DHT22;7202;50.718;7.072;2022-08-07T12:06:17;24.40;92.50
14236;DHT22;7202;50.718;7.072;2022-08-07T12:09:12;24.50;92.80
14236;DHT22;7202;50.718;7.072;2022-08-07T12:11:59;24.60;92.00
14236;DHT22;7202;50.718;7.072;2022-08-07T12:14:46;24.70;92.60
14236;DHT22;7202;50.718;7.072;2022-08-07T12:17:36;24.80;92.40
14236;DHT22;7202;50.718;7.072;2022-08-07T12:20:29;24.90;92.20
14236;DHT22;7202;50.718;7.072;2022-08-07T12:23:14;25.00;91.40
14236;DHT22;7202;50.718;7.072;2022-08-07T12:26:16;25.00;90.40
14236;DHT22;7202;50.718;7.072;2022-08-07T12:29:06;25.00;90.20
14236;DHT22;7202;50.718;7.072;2022-08-07T12:31:42;25.00;91.20
14236;DHT22;7202;50.718;7.072;2022-08-07T12:34:33;25.10;92.20
14236;DHT22;7202;50.718;7.072;2022-08-07T12:37:04;25.10;90.60
14236;DHT22;7202;50.718;7.072;2022-08-07T12:39:50;25.10;90.60
14236;DHT22;7202;50.718;7.072;2022-08-07T12:42:23;25.20;91.10
14236;DHT22;7202;50.718;7.072;2022-08-07T12:44:59;25.30;90.40
14236;DHT22;7202;50.718;7.072;2022-08-07T12:47:39;25.30;90.50
14236;DHT22;7202;50.718;7.072;2022-08-07T12:50:17;25.40;90.90
14236;DHT22;7202;50.718;7.072;2022-08-07T12:53:11;25.50;89.40
14236;DHT22;7202;50.718;7.072;2022-08-07T12:55:50;25.50;88.90
14236;DHT22;7202;50.718;7.072;2022-08-07T12:58:36;25.50;90.50
14236;DHT22;7202;50.718;7.072;2022-08-07T13:01:31;25.60;88.70
14236;DHT22;7202;50.718;7.072;2022-08-07T13:04:20;25.60;88.80
14236;DHT22;7202;50.718;7.072;2022-08-07T13:07:21;25.70;89.60
14236;DHT22;7202;50.718;7.072;2022-08-07T13:10:29;25.70;87.80
14236;DHT22;7202;50.718;7.072;2022-08-07T13:13:26;25.80;88.70
14236;DHT22;7202;50.718;7.072;2022-08-07T13:16:28;25.80;86.60
14236;DHT22;7202;50.718;7.072;2022-08-07T13:19:05;25.70;87.90
14236;DHT22;7202;50.718;7.072;2022-08-07T13:22:00;25.70;89.30
14236;DHT22;7202;50.718;7.072;2022-08-07T13:24:52;25.80;90.20
14236;DHT22;7202;50.718;7.072;2022-08-07T13:27:31;25.90;88.50
14236;DHT22;7202;50.718;7.072;2022-08-07T13:30:22;26.00;88.20
14236;DHT22;7202;50.718;7.072;2022-08-07T13:33:20;26.10;87.50
14236;DHT22;7202;50.718;7.072;2022-08-07T13:36:15;26.10;87.50
14236;DHT22;7202;50.718;7.072;2022-08-07T13:38:50;26.20;86.90
14236;DHT22;7202;50.718;7.072;2022-08-07T13:41:32;26.10;85.60
14236;DHT22;7202;50.718;7.072;2022-08-07T13:44:09;26.20;86.10
14236;DHT22;7202;50.718;7.072;2022-08-07T13:46:43;26.20;85.30
14236;DHT22;7202;50.718;7.072;2022-08-07T13:49:18;26.30;84.30
14236;DHT22;7202;50.718;7.072;2022-08-07T13:52:08;26.30;83.80
14236;DHT22;7202;50.718;7.072;2022-08-07T13:54:58;26.30;86.50
14236;DHT22;7202;50.718;7.072;2022-08-07T13:57:33;26.40;85.10
14236;DHT22;7202;50.718;7.072;2022-08-07T14:00:06;26.40;84.70
14236;DHT22;7202;50.718;7.072;2022-08-07T14:02:55;26.40;83.10
14236;DHT22;7202;50.718;7.072;2022-08-07T14:05:26;26.40;86.80
14236;DHT22;7202;50.718;7.072;2022-08-07T14:08:06;26.50;84.50
14236;DHT22;7202;50.718;7.072;2022-08-07T14:10:37;26.50;85.00
14236;DHT22;7202;50.718;7.072;2022-08-07T14:13:14;26.60;84.10
14236;DHT22;7202;50.718;7.072;2022-08-07T14:15:50;26.50;84.40
14236;DHT22;7202;50.718;7.072;2022-08-07T14:18:28;26.50;84.50
14236;DHT22;7202;50.718;7.072;2022-08-07T14:21:06;26.50;83.30
14236;DHT22;7202;50.718;7.072;2022-08-07T14:23:50;26.50;84.20
14236;DHT22;7202;50.718;7.072;2022-08-07T14:26:34;26.50;83.70
14236;DHT22;7202;50.718;7.072;2022-08-07T14:29:06;26.50;83.00
14236;DHT22;7202;50.718;7.072;2022-08-07T14:31:59;26.50;84.20
14236;DHT22;7202;50.718;7.072;2022-08-07T14:34:30;26.50;84.80
14236;DHT22;7202;50.718;7.072;2022-08-07T14:37:16;26.50;83.10
14236;DHT22;7202;50.718;7.072;2022-08-07T14:39:51;26.50;83.80
14236;DHT22;7202;50.718;7.072;2022-08-07T14:42:40;26.60;83.00
14236;DHT22;7202;50.718;7.072;2022-08-07T14:45:43;26.60;83.70
14236;DHT22;7202;50.718;7.072;2022-08-07T14:48:19;26.60;82.40
14236;DHT22;7202;50.718;7.072;2022-08-07T14:50:55;26.50;81.70
14236;DHT22;7202;50.718;7.072;2022-08-07T14:53:31;26.50;81.70
14236;DHT22;7202;50.718;7.072;2022-08-07T14:56:21;26.40;83.50
14236;DHT22;7202;50.718;7.072;2022-08-07T14:59:01;26.50;84.50
14236;DHT22;7202;50.718;7.072;2022-08-07T15:01:51;26.50;82.70
14236;DHT22;7202;50.718;7.072;2022-08-07T15:04:25;26.50;82.80
14236;DHT22;7202;50.718;7.072;2022-08-07T15:06:56;26.50;82.30
14236;DHT22;7202;50.718;7.072;2022-08-07T15:09:29;26.50;82.80
14236;DHT22;7202;50.718;7.072;2022-08-07T15:12:22;26.40;83.30
14236;DHT22;7202;50.718;7.072;2022-08-07T15:15:02;26.40;82.20
14236;DHT22;7202;50.718;7.072;2022-08-07T15:17:39;26.30;82.80
14236;DHT22;7202;50.718;7.072;2022-08-07T15:20:25;26.30;81.70
14236;DHT22;7202;50.718;7.072;2022-08-07T15:23:21;26.30;81.10
14236;DHT22;7202;50.718;7.072;2022-08-07T15:26:15;26.40;81.00
14236;DHT22;7202;50.718;7.072;2022-08-07T15:28:52;26.40;81.20
14236;DHT22;7202;50.718;7.072;2022-08-07T15:31:43;26.40;79.90
14236;DHT22;7202;50.718;7.072;2022-08-07T15:34:33;26.40;81.70
14236;DHT22;7202;50.718;7.072;2022-08-07T15:37:04;26.40;83.20
14236;DHT22;7202;50.718;7.072;2022-08-07T15:39:38;26.30;82.20
14236;DHT22;7202;50.718;7.072;2022-08-07T15:42:46;26.40;81.10
14236;DHT22;7202;50.718;7.072;2022-08-07T15:45:31;26.40;79.30
14236;DHT22;7202;50.718;7.072;2022-08-07T15:48:23;26.40;79.60
14236;DHT22;7202;50.718;7.072;2022-08-07T15:50:59;26.40;81.10
14236;DHT22;7202;50.718;7.072;2022-08-07T15:53:38;26.40;78.80
14236;DHT22;7202;50.718;7.072;2022-08-07T15:56:21;26.40;79.20
14236;DHT22;7202;50.718;7.072;2022-08-07T15:58:54;26.40;80.00
14236;DHT22;7202;50.718;7.072;2022-08-07T16:01:26;26.30;80.30
14236;DHT22;7202;50.718;7.072;2022-08-07T16:04:08;26.30;81.70
14236;DHT22;7202;50.718;7.072;2022-08-07T16:06:49;26.20;81.20
14236;DHT22;7202;50.718;7.072;2022-08-07T16:09:23;26.20;80.10
14236;DHT22;7202;50.718;7.072;2022-08-07T16:12:24;26.20;79.90
14236;DHT22;7202;50.718;7.072;2022-08-07T16:15:07;26.20;78.30
14236;DHT22;7202;50.718;7.072;2022-08-07T16:18:07;26.20;80.60
14236;DHT22;7202;50.718;7.072;2022-08-07T16:20:43;26.10;81.20
14236;DHT22;7202;50.718;7.072;2022-08-07T16:23:47;26.10;80.60
14236;DHT22;7202;50.718;7.072;2022-08-07T16:26:37;26.10;81.20
14236;DHT22;7202;50.718;7.072;2022-08-07T16:29:48;26.10;81.50
14236;DHT22;7202;50.718;7.072;2022-08-07T16:32:42;26.10;80.60
14236;DHT22;7202;50.718;7.072;2022-08-07T16:35:15;26.10;79.10
14236;DHT22;7202;50.718;7.072;2022-08-07T16:38:37;26.00;80.20
14236;DHT22;7202;50.718;7.072;2022-08-07T16:41:57;26.10;79.60
14236;DHT22;7202;50.718;7.072;2022-08-07T16:44:51;26.10;80.30
14236;DHT22;7202;50.718;7.072;2022-08-07T16:47:59;26.00;79.60
14236;DHT22;7202;50.718;7.072;2022-08-07T16:50:44;26.00;80.80
14236;DHT22;7202;50.718;7.072;2022-08-07T16:53:56;25.90;80.00
14236;DHT22;7202;50.718;7.072;2022-08-07T16:56:49;25.80;81.10
14236;DHT22;7202;50.718;7.072;2022-08-07T16:59:31;25.90;80.50
14236;DHT22;7202;50.718;7.072;2022-08-07T17:02:35;25.80;80.80
14236;DHT22;7202;50.718;7.072;2022-08-07T17:08:44;25.80;79.20
14236;DHT22;7202;50.718;7.072;2022-08-07T17:11:40;25.80;80.40
14236;DHT22;7202;50.718;7.072;2022-08-07T17:14:36;25.80;82.00
14236;DHT22;7202;50.718;7.072;2022-08-07T17:17:21;25.70;82.50
14236;DHT22;7202;50.718;7.072;2022-08-07T17:20:16;25.70;81.80
14236;DHT22;7202;50.718;7.072;2022-08-07T17:23:04;25.60;80.60
14236;DHT22;7202;50.718;7.072;2022-08-07T17:25:49;25.60;82.30
14236;DHT22;7202;50.718;7.072;2022-08-07T17:28:26;25.50;81.90
14236;DHT22;7202;50.718;7.072;2022-08-07T17:31:02;25.50;81.20
14236;DHT22;7202;50.718;7.072;2022-08-07T17:33:48;25.50;82.00
14236;DHT22;7202;50.718;7.072;2022-08-07T17:36:40;25.50;82.10